createdAt,value
2022-08-25T00:01:32.310Z,4.30
2022-08-25T00:03:59.765Z,3.47
2022-08-25T00:06:26.554Z,3.90
2022-08-25T00:08:53.291Z,3.67
2022-08-25T00:11:23.913Z,3.50
2022-08-25T00:13:54.180Z,3.80
2022-08-25T00:16:22.558Z,3.83
2022-08-25T00:18:53.304Z,4.20
2022-08-25T00:21:20.175Z,3.63
2022-08-25T00:23:46.800Z,4.00
2022-08-25T00:26:14.990Z,3.87
2022-08-25T00:28:43.189Z,4.23
2022-08-25T00:31:15.881Z,3.40
2022-08-25T00:33:46.780Z,3.67
2022-08-25T00:36:14.369Z,3.67
2022-08-25T00:38:41.879Z,3.33
2022-08-25T00:41:11.350Z,3.77
2022-08-25T00:43:41.574Z,3.50
2022-08-25T00:46:09.539Z,3.93
2022-08-25T00:48:37.313Z,3.63
2022-08-25T00:51:05.265Z,3.77
2022-08-25T00:53:32.319Z,3.80
2022-08-25T00:55:59.188Z,3.73
2022-08-25T00:58:27.941Z,3.57
2022-08-25T01:00:56.122Z,3.60
2022-08-25T01:03:33.051Z,3.43
2022-08-25T01:06:02.083Z,4.43
2022-08-25T01:08:29.985Z,3.60
2022-08-25T01:11:02.942Z,3.60
2022-08-25T01:13:33.964Z,3.33
2022-08-25T01:16:00.999Z,3.27
2022-08-25T01:18:28.358Z,3.53
2022-08-25T01:20:57.433Z,3.93
2022-08-25T01:23:24.822Z,3.63
2022-08-25T01:26:16.988Z,3.70
2022-08-25T01:29:04.694Z,3.13
2022-08-25T01:31:32.189Z,3.83
2022-08-25T01:33:59.527Z,4.50
2022-08-25T01:36:27.889Z,3.93
2022-08-25T01:38:54.879Z,3.70
2022-08-25T01:41:27.714Z,4.23
2022-08-25T01:43:54.262Z,3.70
2022-08-25T01:46:21.250Z,3.60
2022-08-25T01:48:48.039Z,3.50
2022-08-25T01:51:15.791Z,4.00
2022-08-25T01:53:44.217Z,4.03
2022-08-25T01:56:13.855Z,4.10
2022-08-25T01:58:46.766Z,3.50
2022-08-25T02:01:17.629Z,3.90
2022-08-25T02:03:46.358Z,4.13
2022-08-25T02:06:17.665Z,4.03
2022-08-25T02:08:44.707Z,4.27
2022-08-25T02:11:13.482Z,3.93
2022-08-25T02:13:41.638Z,4.03
2022-08-25T02:16:10.223Z,4.47
2022-08-25T02:18:36.847Z,4.23
2022-08-25T02:21:03.642Z,3.83
2022-08-25T02:23:30.146Z,4.43
2022-08-25T02:25:57.301Z,4.73
2022-08-25T02:28:24.908Z,4.20
2022-08-25T02:30:53.011Z,4.83
2022-08-25T02:33:25.739Z,4.70
2022-08-25T02:35:52.334Z,4.50
2022-08-25T02:38:19.145Z,4.50
2022-08-25T02:40:45.876Z,4.50
2022-08-25T02:43:12.566Z,4.10
2022-08-25T02:45:39.096Z,4.67
2022-08-25T02:48:05.805Z,4.77
2022-08-25T02:50:33.283Z,5.20
2022-08-25T02:52:59.838Z,4.63
2022-08-25T02:55:26.726Z,4.70
2022-08-25T02:57:53.254Z,4.77
2022-08-25T03:00:20.002Z,5.40
2022-08-25T03:02:47.262Z,4.80
2022-08-25T03:05:14.892Z,5.23
2022-08-25T03:07:41.908Z,4.53
2022-08-25T03:10:14.548Z,4.87
2022-08-25T03:12:41.676Z,5.30
2022-08-25T03:15:12.912Z,4.77
2022-08-25T03:17:40.102Z,4.70
2022-08-25T03:20:08.136Z,4.40
2022-08-25T03:22:34.941Z,5.30
2022-08-25T03:25:24.073Z,5.20
2022-08-25T03:27:51.894Z,5.50
2022-08-25T03:30:19.259Z,6.00
2022-08-25T03:32:46.221Z,5.00
2022-08-25T03:35:12.878Z,5.60
2022-08-25T03:37:39.803Z,5.30
2022-08-25T03:40:09.380Z,5.63
2022-08-25T03:42:46.088Z,5.10
2022-08-25T03:45:14.060Z,5.27
2022-08-25T03:47:41.229Z,5.83
2022-08-25T03:50:10.181Z,6.10
2022-08-25T03:52:42.271Z,5.37
2022-08-25T03:55:12.336Z,5.93
2022-08-25T03:57:39.370Z,5.53
2022-08-25T04:00:09.486Z,5.37
2022-08-25T04:02:36.084Z,5.50
2022-08-25T04:05:03.339Z,5.57
2022-08-25T04:07:30.482Z,5.77
2022-08-25T04:09:57.047Z,5.33
2022-08-25T04:12:24.285Z,6.27
2022-08-25T04:14:51.011Z,5.50
2022-08-25T04:17:18.238Z,6.17
2022-08-25T04:19:44.798Z,4.97
2022-08-25T04:22:11.546Z,6.40
2022-08-25T04:24:40.205Z,5.70
2022-08-25T04:27:06.867Z,6.20
2022-08-25T04:29:33.890Z,6.87
2022-08-25T04:32:00.513Z,6.10
2022-08-25T04:34:29.761Z,6.50
2022-08-25T04:37:01.753Z,6.47
2022-08-25T04:39:28.841Z,5.80
2022-08-25T04:41:55.493Z,6.77
2022-08-25T04:44:22.285Z,5.90
2022-08-25T04:46:49.688Z,5.73
2022-08-25T04:49:16.252Z,6.80
2022-08-25T04:51:43.034Z,6.30
2022-08-25T04:54:12.681Z,6.47
2022-08-25T04:56:41.307Z,6.00
2022-08-25T04:59:12.173Z,6.20
2022-08-25T05:01:39.779Z,6.90
2022-08-25T05:04:08.298Z,6.53
2022-08-25T05:06:41.899Z,6.93
2022-08-25T05:09:09.236Z,7.13
2022-08-25T05:11:37.419Z,6.70
2022-08-25T05:14:04.532Z,6.53
2022-08-25T05:16:31.715Z,6.30
2022-08-25T05:18:58.819Z,6.33
2022-08-25T05:21:27.258Z,7.17
2022-08-25T05:23:57.806Z,6.50
2022-08-25T05:26:25.944Z,6.60
2022-08-25T05:28:54.275Z,6.10
2022-08-25T05:31:22.464Z,6.37
2022-08-25T05:33:49.124Z,6.60
2022-08-25T05:36:17.199Z,7.27
2022-08-25T05:38:44.153Z,6.77
2022-08-25T05:41:13.239Z,6.20
2022-08-25T05:43:41.273Z,6.73
2022-08-25T05:46:08.274Z,6.70
2022-08-25T05:48:35.531Z,6.50
2022-08-25T05:51:04.502Z,7.00
2022-08-25T05:53:33.694Z,7.20
2022-08-25T05:56:01.737Z,6.90
2022-08-25T05:58:29.688Z,8.30
2022-08-25T06:00:57.985Z,7.43
2022-08-25T06:03:24.672Z,7.30
2022-08-25T06:05:51.300Z,7.73
2022-08-25T06:08:17.821Z,8.10
2022-08-25T06:10:44.338Z,8.40
2022-08-25T06:13:10.969Z,8.03
2022-08-25T06:15:38.581Z,7.60
2022-08-25T06:18:05.189Z,7.50
2022-08-25T06:20:32.267Z,8.13
2022-08-25T06:22:59.383Z,7.90
2022-08-25T06:25:27.067Z,8.33
2022-08-25T06:27:54.886Z,7.43
2022-08-25T06:30:24.619Z,7.50
2022-08-25T06:32:55.908Z,7.70
2022-08-25T06:35:22.786Z,7.60
2022-08-25T06:37:49.409Z,7.93
2022-08-25T06:40:16.922Z,7.80
2022-08-25T06:42:48.383Z,7.43
2022-08-25T06:45:14.990Z,7.80
2022-08-25T06:47:41.645Z,7.07
2022-08-25T06:50:08.655Z,8.17
2022-08-25T06:52:35.690Z,7.83
2022-08-25T06:55:03.371Z,8.13
2022-08-25T06:57:31.693Z,8.27
2022-08-25T06:59:59.731Z,7.70
2022-08-25T07:02:26.369Z,8.07
2022-08-25T07:04:53.626Z,7.97
2022-08-25T07:07:20.204Z,6.90
2022-08-25T07:09:46.958Z,6.60
2022-08-25T07:12:13.756Z,6.90
2022-08-25T07:14:40.312Z,6.93
2022-08-25T07:17:23.573Z,6.70
2022-08-25T07:19:51.568Z,7.10
2022-08-25T07:22:24.290Z,6.53
2022-08-25T07:24:50.807Z,7.03
2022-08-25T07:27:17.315Z,7.77
2022-08-25T07:29:44.070Z,6.93
2022-08-25T07:32:10.898Z,6.70
2022-08-25T07:34:56.267Z,6.70
2022-08-25T07:37:47.512Z,7.10
2022-08-25T07:40:15.571Z,8.33
2022-08-25T07:42:42.360Z,7.63
2022-08-25T07:45:10.830Z,7.30
2022-08-25T07:47:38.961Z,6.70
2022-08-25T07:50:07.916Z,6.60
2022-08-25T07:52:34.630Z,6.80
2022-08-25T07:55:01.884Z,7.50
2022-08-25T07:57:29.613Z,6.40
2022-08-25T07:59:56.647Z,7.57
2022-08-25T08:02:24.738Z,6.33
2022-08-25T08:04:53.110Z,6.80
2022-08-25T08:07:25.791Z,6.90
2022-08-25T08:12:57.215Z,7.60
2022-08-25T08:15:23.853Z,7.30
2022-08-25T08:17:50.496Z,6.90
2022-08-25T08:20:17.793Z,7.37
2022-08-25T08:22:49.974Z,7.40
2022-08-25T08:25:21.334Z,7.50
2022-08-25T08:27:55.111Z,7.23
2022-08-25T08:30:23.822Z,7.63
2022-08-25T08:33:09.176Z,7.30
2022-08-25T08:35:36.493Z,6.13
2022-08-25T08:38:03.843Z,7.50
2022-08-25T08:40:31.336Z,7.37
2022-08-25T08:43:17.997Z,7.70
2022-08-25T08:45:53.104Z,7.73
2022-08-25T08:48:44.149Z,7.87
2022-08-25T08:51:23.193Z,7.90
2022-08-25T08:53:57.477Z,7.77
2022-08-25T08:56:31.592Z,7.87
2022-08-25T08:59:19.129Z,8.13
2022-08-25T09:01:52.463Z,8.17
2022-08-25T09:04:26.415Z,7.23
2022-08-25T09:06:55.264Z,8.37
2022-08-25T09:09:36.065Z,8.40
2022-08-25T09:12:25.908Z,9.00
2022-08-25T09:15:15.285Z,7.23
2022-08-25T09:18:04.635Z,7.90
2022-08-25T09:20:53.050Z,7.47
2022-08-25T09:23:34.909Z,7.70
2022-08-25T09:26:29.923Z,6.97
2022-08-25T09:29:16.655Z,6.50
2022-08-25T09:31:43.711Z,7.53
2022-08-25T09:34:31.942Z,6.83
2022-08-25T09:36:59.313Z,7.20
2022-08-25T09:39:27.510Z,7.70
2022-08-25T09:41:56.907Z,6.70
2022-08-25T09:44:26.874Z,5.70
2022-08-25T09:47:01.805Z,6.47
2022-08-25T09:49:44.356Z,6.80
2022-08-25T09:52:31.784Z,7.03
2022-08-25T09:55:24.687Z,6.43
2022-08-25T09:57:56.836Z,6.72
2022-08-25T10:00:34.785Z,6.35
2022-08-25T10:03:09.209Z,6.30
2022-08-25T10:05:48.571Z,6.35
2022-08-25T10:08:45.998Z,5.95
2022-08-25T10:11:15.541Z,6.68
2022-08-25T10:13:43.470Z,6.43
2022-08-25T10:16:17.708Z,5.72
2022-08-25T10:19:07.247Z,6.60
2022-08-25T10:21:36.412Z,5.85
2022-08-25T10:24:05.844Z,6.90
2022-08-25T10:27:03.342Z,6.97
2022-08-25T10:29:45.153Z,6.60
2022-08-25T10:32:46.947Z,6.35
2022-08-25T10:35:41.437Z,6.35
2022-08-25T10:38:35.256Z,6.32
2022-08-25T10:41:41.694Z,5.85
2022-08-25T10:44:54.167Z,6.55
2022-08-25T10:47:40.922Z,6.07
2022-08-25T10:51:07.107Z,6.28
2022-08-25T10:53:54.549Z,6.63
2022-08-25T10:56:31.817Z,6.05
2022-08-25T10:59:07.689Z,6.97
2022-08-25T11:02:03.384Z,6.10
2022-08-25T11:04:39.155Z,5.93
2022-08-25T11:07:16.662Z,6.03
2022-08-25T11:09:48.059Z,6.15
2022-08-25T11:12:20.088Z,6.70
2022-08-25T11:14:50.056Z,6.57
2022-08-25T11:17:25.854Z,6.00
2022-08-25T11:19:55.810Z,5.85
2022-08-25T11:22:37.843Z,5.80
2022-08-25T11:25:21.699Z,6.40
2022-08-25T11:28:08.214Z,6.75
2022-08-25T11:30:35.068Z,6.70
2022-08-25T11:33:01.780Z,6.47
2022-08-25T11:35:35.893Z,7.32
2022-08-25T11:38:18.266Z,6.63
2022-08-25T11:41:11.240Z,7.93
2022-08-25T11:44:15.720Z,7.00
2022-08-25T11:47:00.323Z,7.53
2022-08-25T11:49:58.366Z,6.85
2022-08-25T11:52:34.578Z,8.15
2022-08-25T11:55:16.775Z,6.15
2022-08-25T11:57:47.909Z,6.70
2022-08-25T12:00:29.144Z,6.63
2022-08-25T12:03:00.854Z,6.03
2022-08-25T12:05:28.098Z,6.93
2022-08-25T12:08:14.944Z,6.03
2022-08-25T12:10:59.487Z,6.20
2022-08-25T12:13:47.563Z,6.18
2022-08-25T12:16:36.179Z,6.05
2022-08-25T12:19:28.737Z,6.25
2022-08-25T12:22:03.557Z,5.78
2022-08-25T12:24:47.574Z,6.27
2022-08-25T12:27:27.073Z,5.97
2022-08-25T12:30:24.382Z,5.57
2022-08-25T12:33:15.270Z,6.47
2022-08-25T12:36:02.421Z,5.70
2022-08-25T12:38:50.902Z,5.97
2022-08-25T12:41:22.529Z,5.60
2022-08-25T12:43:53.746Z,5.60
2022-08-25T12:46:23.209Z,6.10
2022-08-25T12:49:00.493Z,5.63
2022-08-25T12:51:41.103Z,5.83
2022-08-25T12:54:36.514Z,5.70
2022-08-25T12:57:25.113Z,5.90
2022-08-25T12:59:58.642Z,6.30
2022-08-25T13:03:04.011Z,5.00
2022-08-25T13:05:45.238Z,6.40
2022-08-25T13:08:15.490Z,6.67
2022-08-25T13:11:14.210Z,5.93
2022-08-25T13:13:52.765Z,5.70
2022-08-25T13:16:26.966Z,6.20
2022-08-25T13:18:59.072Z,6.83
2022-08-25T13:21:39.193Z,6.10
2022-08-25T13:24:09.541Z,6.67
2022-08-25T13:26:48.393Z,6.40
2022-08-25T13:29:27.844Z,6.40
2022-08-25T13:31:57.459Z,6.57
2022-08-25T13:34:34.856Z,6.43
2022-08-25T13:37:25.085Z,6.40
2022-08-25T13:40:11.637Z,5.30
2022-08-25T13:42:45.130Z,6.47
2022-08-25T13:45:30.099Z,5.77
2022-08-25T13:47:59.055Z,6.50
2022-08-25T13:50:26.368Z,6.20
2022-08-25T13:52:56.085Z,5.73
2022-08-25T13:55:27.689Z,6.33
2022-08-25T13:57:57.842Z,5.93
2022-08-25T14:00:31.699Z,5.90
2022-08-25T14:02:59.737Z,6.20
2022-08-25T14:05:41.985Z,6.17
2022-08-25T14:08:38.719Z,6.53
2022-08-25T14:11:15.581Z,6.20
2022-08-25T14:13:45.553Z,5.77
2022-08-25T14:16:14.261Z,6.50
2022-08-25T14:18:58.784Z,5.40
2022-08-25T14:21:28.709Z,5.50
2022-08-25T14:23:55.961Z,5.83
2022-08-25T14:26:23.521Z,5.83
2022-08-25T14:28:53.297Z,5.97
2022-08-25T14:31:46.367Z,6.13
2022-08-25T14:34:16.865Z,6.50
2022-08-25T14:36:43.834Z,5.90
2022-08-25T14:39:11.637Z,6.23
2022-08-25T14:41:41.022Z,6.40
2022-08-25T14:44:09.914Z,5.87
2022-08-25T14:46:39.249Z,6.37
2022-08-25T14:49:12.887Z,6.27
2022-08-25T14:51:41.426Z,6.23
2022-08-25T14:54:14.879Z,6.03
2022-08-25T14:56:42.995Z,6.33
2022-08-25T14:59:09.978Z,6.27
2022-08-25T15:01:36.717Z,8.13
2022-08-25T15:04:08.415Z,6.40
2022-08-25T15:06:36.343Z,6.10
2022-08-25T15:09:11.663Z,6.50
2022-08-25T15:11:41.957Z,5.70
2022-08-25T15:14:10.785Z,6.13
2022-08-25T15:16:43.461Z,6.03
2022-08-25T15:19:14.402Z,6.13
2022-08-25T15:21:43.245Z,7.20
2022-08-25T15:24:12.375Z,6.30
2022-08-25T15:29:20.785Z,6.07
2022-08-25T15:31:47.850Z,6.13
2022-08-25T15:34:15.312Z,6.77
2022-08-25T15:36:42.229Z,6.87
2022-08-25T15:39:10.140Z,6.53
2022-08-25T15:41:37.962Z,6.10
2022-08-25T15:44:06.617Z,5.33
2022-08-25T15:46:36.260Z,6.17
2022-08-25T15:49:02.923Z,5.77
2022-08-25T15:51:29.814Z,6.07
2022-08-25T15:53:57.261Z,5.60
2022-08-25T15:56:26.735Z,5.43
2022-08-25T15:58:54.276Z,6.13
2022-08-25T16:01:26.644Z,9.83
2022-08-25T16:03:53.986Z,6.10
2022-08-25T16:06:20.620Z,5.40
2022-08-25T16:08:48.218Z,6.67
2022-08-25T16:11:29.587Z,6.30
2022-08-25T16:13:57.503Z,5.83
2022-08-25T16:16:26.337Z,6.07
2022-08-25T16:18:53.584Z,6.87
2022-08-25T16:21:25.631Z,5.60
2022-08-25T16:23:58.263Z,6.20
2022-08-25T16:26:26.519Z,6.00
2022-08-25T16:28:53.138Z,6.60
2022-08-25T16:31:20.658Z,6.90
2022-08-25T16:33:47.306Z,5.57
2022-08-25T16:36:25.405Z,6.13
2022-08-25T16:38:55.154Z,6.53
2022-08-25T16:41:27.192Z,5.60
2022-08-25T16:43:54.153Z,5.80
2022-08-25T16:46:23.802Z,6.87
2022-08-25T16:48:50.774Z,6.50
2022-08-25T16:51:22.745Z,6.73
2022-08-25T16:54:15.164Z,5.60
2022-08-25T16:56:48.817Z,5.70
2022-08-25T16:59:22.060Z,5.77
2022-08-25T17:01:51.123Z,6.60
2022-08-25T17:04:17.847Z,6.73
2022-08-25T17:06:51.771Z,5.97
2022-08-25T17:09:23.939Z,6.27
2022-08-25T17:11:54.170Z,6.47
2022-08-25T17:14:21.230Z,6.10
2022-08-25T17:16:48.572Z,5.70
2022-08-25T17:19:17.382Z,6.40
2022-08-25T17:21:48.332Z,5.80
2022-08-25T17:24:17.064Z,6.03
2022-08-25T17:26:46.092Z,5.80
2022-08-25T17:29:13.021Z,6.13
2022-08-25T17:31:40.193Z,5.53
2022-08-25T17:34:10.405Z,5.70
2022-08-25T17:36:37.843Z,5.90
2022-08-25T17:39:08.649Z,5.50
2022-08-25T17:41:37.581Z,6.50
2022-08-25T17:44:05.455Z,6.30
2022-08-25T17:46:32.481Z,6.60
2022-08-25T17:48:59.207Z,6.10
2022-08-25T17:51:25.834Z,6.30
2022-08-25T17:53:52.819Z,6.00
2022-08-25T17:56:21.915Z,5.90
2022-08-25T17:58:49.837Z,5.80
2022-08-25T18:01:23.070Z,5.60
2022-08-25T18:03:49.944Z,6.17
2022-08-25T18:06:17.211Z,6.10
2022-08-25T18:08:45.002Z,6.07
2022-08-25T18:11:19.728Z,5.50
2022-08-25T18:13:46.990Z,6.03
2022-08-25T18:16:13.646Z,6.43
2022-08-25T18:18:41.233Z,5.43
2022-08-25T18:21:12.847Z,5.37
2022-08-25T18:23:39.488Z,5.87
2022-08-25T18:26:06.832Z,5.57
2022-08-25T18:28:33.397Z,5.67
2022-08-25T18:31:01.869Z,5.87
2022-08-25T18:33:29.907Z,6.30
2022-08-25T18:35:57.634Z,6.07
2022-08-25T18:38:43.165Z,5.77
2022-08-25T18:41:10.952Z,5.37
2022-08-25T18:43:39.025Z,5.80
2022-08-25T18:46:06.957Z,6.73
2022-08-25T18:48:34.895Z,5.50
2022-08-25T18:51:02.099Z,6.50
2022-08-25T18:53:30.621Z,5.50
2022-08-25T18:56:05.636Z,5.70
2022-08-25T18:58:32.451Z,5.47
2022-08-25T19:01:00.813Z,5.70
2022-08-25T19:03:28.203Z,6.93
2022-08-25T19:05:57.259Z,5.97
2022-08-25T19:08:24.118Z,5.97
2022-08-25T19:10:52.791Z,6.20
2022-08-25T19:13:22.408Z,6.37
2022-08-25T19:15:50.929Z,5.67
2022-08-25T19:18:18.840Z,6.00
2022-08-25T19:20:52.573Z,6.53
2022-08-25T19:23:19.566Z,5.90
2022-08-25T19:25:46.757Z,6.67
2022-08-25T19:28:13.422Z,8.77
2022-08-25T19:30:50.527Z,8.70
2022-08-25T19:33:42.731Z,7.97
2022-08-25T19:36:06.328Z,6.37
2022-08-25T19:38:37.156Z,5.60
2022-08-25T19:41:13.946Z,5.60
2022-08-25T19:43:55.591Z,7.30
2022-08-25T19:46:32.780Z,6.13
2022-08-25T19:49:22.416Z,4.90
2022-08-25T19:51:51.404Z,5.30
2022-08-25T19:54:22.047Z,5.53
2022-08-25T19:56:54.772Z,5.27
2022-08-25T19:59:25.367Z,4.97
2022-08-25T20:01:53.220Z,5.60
2022-08-25T20:04:20.143Z,6.27
2022-08-25T20:06:48.275Z,12.63
2022-08-25T20:09:35.497Z,6.00
2022-08-25T20:12:03.637Z,6.20
2022-08-25T20:14:33.931Z,6.30
2022-08-25T20:17:01.712Z,5.97
2022-08-25T20:19:30.474Z,5.90
2022-08-25T20:21:57.246Z,5.20
2022-08-25T20:24:43.630Z,6.17
2022-08-25T20:27:10.694Z,5.83
2022-08-25T20:29:37.440Z,7.00
2022-08-25T20:32:05.136Z,6.00
2022-08-25T20:34:32.575Z,6.77
2022-08-25T20:37:00.869Z,7.00
2022-08-25T20:39:27.476Z,6.50
2022-08-25T20:41:54.155Z,6.53
2022-08-25T20:44:23.192Z,6.23
2022-08-25T20:46:51.509Z,6.40
2022-08-25T20:49:20.146Z,6.87
2022-08-25T20:51:46.758Z,6.90
2022-08-25T20:54:17.164Z,6.37
2022-08-25T20:56:44.014Z,6.17
2022-08-25T20:59:11.649Z,7.40
2022-08-25T21:01:39.834Z,6.80
2022-08-25T21:04:08.690Z,6.90
2022-08-25T21:06:36.005Z,6.73
2022-08-25T21:09:05.794Z,7.00
2022-08-25T21:11:39.893Z,6.23
2022-08-25T21:14:07.010Z,5.90
2022-08-25T21:16:36.661Z,6.57
2022-08-25T21:19:04.620Z,6.77
2022-08-25T21:21:38.011Z,6.77
2022-08-25T21:24:07.362Z,7.53
2022-08-25T21:26:37.293Z,7.00
2022-08-25T21:29:15.318Z,6.23
2022-08-25T21:31:42.534Z,6.00
2022-08-25T21:34:10.967Z,6.90
2022-08-25T21:36:39.065Z,7.37
2022-08-25T21:39:05.879Z,7.40
2022-08-25T21:41:33.679Z,7.00
2022-08-25T21:44:01.402Z,6.80
2022-08-25T21:46:30.721Z,7.10
2022-08-25T21:48:58.913Z,6.97
2022-08-25T21:51:33.353Z,6.60
2022-08-25T21:54:11.700Z,6.77
2022-08-25T21:56:44.391Z,7.50
2022-08-25T21:59:13.654Z,7.33
2022-08-25T22:01:41.055Z,8.00
2022-08-25T22:04:09.070Z,7.80
2022-08-25T22:06:36.156Z,8.20
2022-08-25T22:09:04.976Z,8.20
2022-08-25T22:11:33.937Z,7.50
2022-08-25T22:14:03.545Z,8.53
2022-08-25T22:16:33.031Z,7.83
2022-08-25T22:18:59.868Z,7.70
2022-08-25T22:21:31.900Z,8.10
2022-08-25T22:23:59.393Z,8.00
2022-08-25T22:26:29.094Z,7.70
2022-08-25T22:28:57.129Z,7.73
2022-08-25T22:31:23.980Z,7.50
2022-08-25T22:33:51.640Z,7.30
2022-08-25T22:36:20.625Z,7.30
2022-08-25T22:38:47.819Z,7.07
2022-08-25T22:41:19.032Z,7.00
2022-08-25T22:43:49.157Z,7.10
2022-08-25T22:46:17.144Z,7.07
2022-08-25T22:48:44.514Z,6.77
2022-08-25T22:51:15.345Z,7.60
2022-08-25T22:53:43.198Z,7.17
2022-08-25T22:56:10.835Z,7.60
2022-08-25T22:58:39.156Z,7.20
2022-08-25T23:01:13.079Z,7.63
2022-08-25T23:03:44.200Z,7.17
2022-08-25T23:06:24.816Z,7.73
2022-08-25T23:08:53.586Z,7.00
2022-08-25T23:11:21.466Z,6.83
2022-08-25T23:13:48.974Z,7.40
2022-08-25T23:16:17.123Z,8.30
2022-08-25T23:18:45.002Z,8.50
2022-08-25T23:21:38.048Z,7.20
2022-08-25T23:24:10.953Z,7.57
2022-08-25T23:26:42.511Z,8.37
2022-08-25T23:29:18.648Z,8.43
2022-08-25T23:31:48.799Z,7.47
2022-08-25T23:34:16.693Z,8.50
2022-08-25T23:36:44.567Z,8.17
2022-08-25T23:39:11.296Z,8.17
2022-08-25T23:41:38.474Z,8.17
2022-08-25T23:44:06.207Z,8.10
2022-08-25T23:46:35.241Z,10.33
2022-08-25T23:49:03.996Z,8.43
2022-08-25T23:51:33.745Z,8.77
2022-08-25T23:54:05.781Z,7.50
2022-08-25T23:56:34.318Z,8.67
2022-08-25T23:59:03.252Z,7.70
